createdAt,value
2018-11-26T00:00:36.308Z,99114.55
2018-11-26T00:03:09.837Z,99098.39
2018-11-26T00:05:39.963Z,99108.67
2018-11-26T00:08:10.511Z,99107.61
2018-11-26T00:11:49.052Z,99093.39
2018-11-26T00:14:18.644Z,99104.75
2018-11-26T00:16:48.650Z,99109.69
2018-11-26T00:19:18.158Z,99098.25
2018-11-26T00:21:47.548Z,99106.09
2018-11-26T00:24:16.784Z,99097.90
2018-11-26T00:26:46.557Z,99088.63
2018-11-26T00:29:16.320Z,99081.85
2018-11-26T00:31:45.892Z,99083.39
2018-11-26T00:34:16.272Z,99071.87
2018-11-26T00:36:45.526Z,99077.59
2018-11-26T00:39:14.904Z,99066.95
2018-11-26T00:41:44.568Z,99058.91
2018-11-26T00:44:17.767Z,99060.22
2018-11-26T00:46:47.405Z,99057.20
2018-11-26T00:49:16.634Z,99059.53
2018-11-26T00:51:45.849Z,99062.75
2018-11-26T00:54:16.600Z,99073.19
2018-11-26T00:56:46.414Z,99062.55
2018-11-26T00:59:15.675Z,99058.04
2018-11-26T01:01:45.469Z,99053.61
2018-11-26T01:04:14.762Z,99054.70
2018-11-26T01:06:46.363Z,99039.27
2018-11-26T01:09:17.485Z,99040.49
2018-11-26T01:11:51.980Z,99039.20
2018-11-26T01:14:21.505Z,99033.47
2018-11-26T01:16:50.680Z,99030.00
2018-11-26T01:19:20.673Z,99028.30
2018-11-26T01:21:49.853Z,99028.68
2018-11-26T01:24:22.429Z,99007.27
2018-11-26T01:26:51.789Z,99000.83
2018-11-26T01:29:20.958Z,99003.84
2018-11-26T01:31:54.180Z,99004.79
2018-11-26T01:34:23.382Z,99009.58
2018-11-26T01:36:53.597Z,98998.36
2018-11-26T01:39:23.218Z,99000.70
2018-11-26T01:41:52.337Z,99006.86
2018-11-26T01:44:23.893Z,99004.56
2018-11-26T01:46:53.462Z,98999.77
2018-11-26T01:49:22.686Z,98997.53
2018-11-26T01:51:53.422Z,98990.19
2018-11-26T01:54:25.645Z,98990.78
2018-11-26T01:56:56.138Z,98994.34
2018-11-26T01:59:25.517Z,98987.47
2018-11-26T02:01:59.128Z,98979.41
2018-11-26T02:04:28.229Z,98972.70
2018-11-26T02:06:58.368Z,98954.06
2018-11-26T02:09:30.650Z,98955.47
2018-11-26T02:11:59.943Z,98962.42
2018-11-26T02:14:29.107Z,98966.20
2018-11-26T02:16:58.348Z,98961.48
2018-11-26T02:19:27.585Z,98959.23
2018-11-26T02:21:58.419Z,98960.09
2018-11-26T02:24:28.130Z,98964.28
2018-11-26T02:27:01.982Z,98953.13
2018-11-26T02:29:31.813Z,98922.91
2018-11-26T02:32:01.065Z,98936.22
2018-11-26T02:34:30.379Z,98911.33
2018-11-26T02:37:00.449Z,98934.52
2018-11-26T02:39:30.103Z,98927.40
2018-11-26T02:42:00.388Z,98914.20
2018-11-26T02:44:30.568Z,98917.14
2018-11-26T02:47:02.860Z,98920.91
2018-11-26T02:49:31.955Z,98927.48
2018-11-26T02:52:06.583Z,98914.05
2018-11-26T02:54:37.739Z,98923.70
2018-11-26T02:57:13.220Z,98930.58
2018-11-26T02:59:42.261Z,98921.30
2018-11-26T03:02:11.606Z,98922.01
2018-11-26T03:04:40.746Z,98910.56
2018-11-26T03:07:11.263Z,98897.81
2018-11-26T03:09:40.872Z,98906.54
2018-11-26T03:12:10.257Z,98892.94
2018-11-26T03:14:43.343Z,98886.83
2018-11-26T03:17:12.785Z,98881.58
2018-11-26T03:19:42.025Z,98876.79
2018-11-26T03:22:12.215Z,98869.84
2018-11-26T03:24:41.327Z,98862.50
2018-11-26T03:27:10.675Z,98842.50
2018-11-26T03:29:40.406Z,98839.79
2018-11-26T03:32:09.540Z,98843.02
2018-11-26T03:34:42.277Z,98839.62
2018-11-26T03:37:11.891Z,98828.47
2018-11-26T03:39:42.763Z,98823.69
2018-11-26T03:42:12.048Z,98808.39
2018-11-26T03:44:44.741Z,98810.08
2018-11-26T03:47:13.959Z,98796.86
2018-11-26T03:49:43.056Z,98784.56
2018-11-26T03:52:13.393Z,98796.08
2018-11-26T03:54:42.690Z,98799.55
2018-11-26T03:57:11.933Z,98790.28
2018-11-26T03:59:41.835Z,98777.49
2018-11-26T04:02:10.921Z,98770.38
2018-11-26T04:04:40.172Z,98769.35
2018-11-26T04:07:21.231Z,98759.48
2018-11-26T04:09:51.392Z,98766.43
2018-11-26T04:12:20.688Z,98761.00
2018-11-26T04:14:50.284Z,98752.91
2018-11-26T04:17:20.549Z,98753.30
2018-11-26T04:19:50.428Z,98732.76
2018-11-26T04:22:19.864Z,98724.90
2018-11-26T04:24:48.941Z,98716.52
2018-11-26T04:27:18.547Z,98729.09
2018-11-26T04:29:47.830Z,98732.48
2018-11-26T04:32:16.898Z,98731.72
2018-11-26T04:34:46.479Z,98743.61
2018-11-26T04:37:15.652Z,98746.70
2018-11-26T04:39:44.735Z,98762.30
2018-11-26T04:42:14.983Z,98792.63
2018-11-26T04:44:44.200Z,98780.12
2018-11-26T04:47:13.533Z,98772.62
2018-11-26T04:49:43.116Z,98787.45
2018-11-26T04:52:12.173Z,98788.30
2018-11-26T04:54:47.017Z,98787.89
2018-11-26T04:57:17.341Z,98805.17
2018-11-26T04:59:46.460Z,98809.53
2018-11-26T05:02:17.172Z,98821.22
2018-11-26T05:04:49.569Z,98832.02
2018-11-26T05:07:19.868Z,98828.08
2018-11-26T05:09:48.967Z,98815.20
2018-11-26T05:12:18.106Z,98811.17
2018-11-26T05:14:47.748Z,98812.11
2018-11-26T05:17:18.111Z,98808.77
2018-11-26T05:19:47.868Z,98792.70
2018-11-26T05:22:17.389Z,98789.99
2018-11-26T05:38:31.939Z,98746.08
2018-11-26T05:41:03.408Z,98743.41
2018-11-26T05:43:32.771Z,98745.68
2018-11-26T05:46:01.948Z,98747.10
2018-11-26T05:48:35.228Z,98742.38
2018-11-26T05:51:07.580Z,98736.02
2018-11-26T05:53:36.852Z,98726.27
2018-11-26T05:56:06.162Z,98713.77
2018-11-26T05:58:35.823Z,98716.22
2018-11-26T06:01:05.133Z,98725.41
2018-11-26T06:03:34.873Z,98728.59
2018-11-26T06:06:04.037Z,98734.50
2018-11-26T06:08:33.426Z,98734.90
2018-11-26T06:11:02.517Z,98731.62
2018-11-26T06:13:31.764Z,98730.47
2018-11-26T06:16:01.594Z,98731.70
2018-11-26T06:18:37.975Z,98734.61
2018-11-26T06:21:08.606Z,98739.75
2018-11-26T06:23:38.700Z,98739.20
2018-11-26T06:26:09.001Z,98738.12
2018-11-26T06:28:41.439Z,98748.25
2018-11-26T06:31:10.868Z,98738.67
2018-11-26T06:33:40.192Z,98722.94
2018-11-26T06:36:09.369Z,98714.09
2018-11-26T06:38:38.609Z,98721.65
2018-11-26T06:41:07.866Z,98715.46
2018-11-26T06:43:37.072Z,98702.00
2018-11-26T06:46:07.016Z,98703.59
2018-11-26T06:48:36.285Z,98713.17
2018-11-26T06:51:05.514Z,98712.06
2018-11-26T06:53:34.563Z,98701.93
2018-11-26T06:56:03.625Z,98701.60
2018-11-26T06:58:32.683Z,98691.94
2018-11-26T07:01:01.999Z,98685.45
2018-11-26T07:03:31.087Z,98675.41
2018-11-26T07:06:00.209Z,98669.30
2018-11-26T07:08:29.572Z,98672.78
2018-11-26T07:10:58.711Z,98665.64
2018-11-26T07:13:27.956Z,98671.66
2018-11-26T07:15:57.097Z,98669.41
2018-11-26T07:18:26.232Z,98655.69
2018-11-26T07:20:55.340Z,98648.60
2018-11-26T07:23:24.648Z,98652.36
2018-11-26T07:25:53.789Z,98650.34
2018-11-26T07:28:23.095Z,98641.42
2018-11-26T07:30:52.364Z,98636.53
2018-11-26T07:33:21.570Z,98638.63
2018-11-26T07:35:50.797Z,98637.23
2018-11-26T07:38:20.207Z,98642.02
2018-11-26T07:40:49.233Z,98637.45
2018-11-26T07:43:18.418Z,98638.58
2018-11-26T07:45:47.784Z,98636.70
2018-11-26T07:48:16.957Z,98633.13
2018-11-26T07:50:46.105Z,98642.62
2018-11-26T07:53:15.365Z,98635.86
2018-11-26T07:55:44.408Z,98645.91
2018-11-26T07:58:17.180Z,98634.36
2018-11-26T08:00:46.272Z,98641.68
2018-11-26T08:03:15.403Z,98659.91
2018-11-26T08:05:44.508Z,98657.03
2018-11-26T08:08:14.156Z,98656.80
2018-11-26T08:10:43.516Z,98656.24
2018-11-26T08:13:12.753Z,98664.92
2018-11-26T08:15:41.956Z,98662.48
2018-11-26T08:18:11.219Z,98668.49
2018-11-26T08:20:40.575Z,98666.05
2018-11-26T08:23:10.012Z,98655.77
2018-11-26T08:25:40.964Z,98656.80
2018-11-26T08:28:11.487Z,98660.03
2018-11-26T08:30:40.964Z,98657.09
2018-11-26T08:33:10.298Z,98670.33
2018-11-26T08:35:39.819Z,98669.70
2018-11-26T08:38:13.464Z,98667.55
2018-11-26T08:40:44.072Z,98669.05
2018-11-26T08:43:18.454Z,98661.07
2018-11-26T08:45:53.808Z,98675.03
2018-11-26T08:48:28.125Z,98663.09
2018-11-26T08:50:58.359Z,98652.39
2018-11-26T08:53:27.584Z,98657.03
2018-11-26T08:55:56.810Z,98648.10
2018-11-26T08:58:26.009Z,98638.55
2018-11-26T09:01:00.405Z,98633.86
2018-11-26T09:03:35.011Z,98626.23
2018-11-26T09:06:05.279Z,98621.73
2018-11-26T09:08:35.547Z,98619.48
2018-11-26T09:11:06.712Z,98601.27
2018-11-26T09:13:35.840Z,98591.98
2018-11-26T09:16:05.005Z,98586.62
2018-11-26T09:18:34.548Z,98590.50
2018-11-26T09:21:03.882Z,98587.77
2018-11-26T09:23:33.064Z,98589.92
2018-11-26T09:26:02.742Z,98587.38
2018-11-26T09:28:31.746Z,98590.58
2018-11-26T09:31:00.966Z,98574.13
2018-11-26T09:33:32.178Z,98563.22
2018-11-26T09:36:01.344Z,98559.72
2018-11-26T09:38:32.925Z,98560.77
2018-11-26T09:41:01.979Z,98558.23
2018-11-26T09:43:30.982Z,98541.39
2018-11-26T09:46:00.286Z,98538.45
2018-11-26T09:48:29.477Z,98532.60
2018-11-26T09:50:58.539Z,98530.70
2018-11-26T09:53:27.848Z,98526.07
2018-11-26T09:55:57.084Z,98520.86
2018-11-26T09:58:26.357Z,98505.23
2018-11-26T10:00:55.621Z,98511.83
2018-11-26T10:03:24.691Z,98509.18
2018-11-26T10:05:53.704Z,98511.39
2018-11-26T10:08:23.867Z,98502.25
2018-11-26T10:10:53.295Z,98506.10
2018-11-26T10:13:22.488Z,98509.63
2018-11-26T10:15:51.583Z,98522.48
2018-11-26T10:18:20.708Z,98515.22
2018-11-26T10:20:50.712Z,98517.91
2018-11-26T10:23:19.911Z,98501.44
2018-11-26T10:25:48.870Z,98498.27
2018-11-26T10:28:18.460Z,98503.86
2018-11-26T10:30:47.692Z,98493.79
2018-11-26T10:33:16.736Z,98482.80
2018-11-26T10:35:45.980Z,98496.50
2018-11-26T10:38:15.016Z,98480.32
2018-11-26T10:40:44.088Z,98490.33
2018-11-26T10:43:13.360Z,98490.30
2018-11-26T10:45:42.483Z,98475.33
2018-11-26T10:48:11.674Z,98481.77
2018-11-26T10:50:41.091Z,98474.25
2018-11-26T10:53:10.262Z,98464.88
2018-11-26T10:55:39.604Z,98467.92
2018-11-26T10:58:09.205Z,98467.34
2018-11-26T11:00:38.598Z,98473.86
2018-11-26T11:03:07.802Z,98487.80
2018-11-26T11:05:38.208Z,98504.64
2018-11-26T11:08:08.138Z,98493.54
2018-11-26T11:10:37.524Z,98489.53
2018-11-26T11:13:08.181Z,98496.03
2018-11-26T11:15:37.887Z,98496.14
2018-11-26T11:18:08.338Z,98494.77
2018-11-26T11:20:37.430Z,98495.78
2018-11-26T11:23:07.184Z,98491.93
2018-11-26T11:25:36.803Z,98490.34
2018-11-26T11:28:06.456Z,98474.52
2018-11-26T11:30:35.596Z,98466.88
2018-11-26T11:35:32.800Z,98454.06
2018-11-26T11:38:01.932Z,98444.06
2018-11-26T11:40:32.200Z,98451.90
2018-11-26T11:43:01.776Z,98447.52
2018-11-26T11:45:32.169Z,98452.11
2018-11-26T11:48:01.270Z,98442.86
2018-11-26T11:50:30.356Z,98454.45
2018-11-26T11:52:59.582Z,98455.78
2018-11-26T11:55:28.838Z,98459.36
2018-11-26T11:57:58.128Z,98455.30
2018-11-26T12:00:33.888Z,98448.50
2018-11-26T12:03:05.084Z,98451.73
2018-11-26T12:05:34.555Z,98444.67
2018-11-26T12:08:03.791Z,98448.39
2018-11-26T12:10:33.373Z,98455.19
2018-11-26T12:13:02.731Z,98442.12
2018-11-26T12:15:31.933Z,98440.72
2018-11-26T12:18:00.987Z,98448.70
2018-11-26T12:20:30.351Z,98441.38
2018-11-26T12:22:59.416Z,98433.66
2018-11-26T12:25:28.494Z,98436.30
2018-11-26T12:27:57.677Z,98434.32
2018-11-26T12:30:29.137Z,98423.82
2018-11-26T12:32:58.426Z,98420.94
2018-11-26T12:35:27.550Z,98425.34
2018-11-26T12:37:56.610Z,98410.73
2018-11-26T12:40:26.793Z,98409.77
2018-11-26T12:42:57.175Z,98407.86
2018-11-26T12:45:32.149Z,98407.84
2018-11-26T12:48:01.596Z,98404.32
2018-11-26T12:50:31.964Z,98404.55
2018-11-26T12:53:02.097Z,98412.49
2018-11-26T12:55:31.080Z,98415.13
2018-11-26T12:58:00.564Z,98424.17
2018-11-26T13:00:30.522Z,98415.20
2018-11-26T13:03:11.095Z,98417.36
2018-11-26T13:05:40.221Z,98396.44
2018-11-26T13:08:09.841Z,98407.11
2018-11-26T13:10:39.692Z,98414.06
2018-11-26T13:13:10.318Z,98416.11
2018-11-26T13:15:39.385Z,98417.07
2018-11-26T13:18:08.682Z,98417.07
2018-11-26T13:20:37.930Z,98405.37
2018-11-26T13:23:08.481Z,98390.74
2018-11-26T13:25:41.767Z,98392.46
2018-11-26T13:28:08.827Z,98402.33
2018-11-26T13:30:44.411Z,98404.95
2018-11-26T13:33:15.243Z,98404.36
2018-11-26T13:35:45.107Z,98392.23
2018-11-26T13:38:14.291Z,98388.09
2018-11-26T13:40:43.463Z,98386.88
2018-11-26T13:43:15.223Z,98385.52
2018-11-26T13:45:49.450Z,98387.73
2018-11-26T13:48:19.657Z,98389.56
2018-11-26T13:50:57.079Z,98391.22
2018-11-26T13:53:26.260Z,98388.91
2018-11-26T13:55:55.434Z,98396.30
2018-11-26T13:58:24.497Z,98397.11
2018-11-26T14:00:53.673Z,98390.40
2018-11-26T14:03:22.910Z,98393.20
2018-11-26T14:05:52.464Z,98376.57
2018-11-26T14:08:21.483Z,98374.31
2018-11-26T14:10:50.646Z,98378.52
2018-11-26T14:13:20.106Z,98379.14
2018-11-26T14:15:49.410Z,98394.67
2018-11-26T14:18:18.487Z,98403.98
2018-11-26T14:20:47.801Z,98415.51
2018-11-26T14:23:16.926Z,98415.09
2018-11-26T14:25:46.017Z,98415.14
2018-11-26T14:28:15.091Z,98410.56
2018-11-26T14:30:44.257Z,98410.59
2018-11-26T14:33:13.491Z,98414.45
2018-11-26T14:35:42.615Z,98408.22
2018-11-26T14:38:11.681Z,98398.62
2018-11-26T14:40:45.488Z,98400.78
2018-11-26T14:43:14.615Z,98399.80
2018-11-26T14:45:43.911Z,98397.16
2018-11-26T14:48:13.319Z,98387.30
2018-11-26T14:50:42.471Z,98393.05
2018-11-26T14:53:15.843Z,98389.94
2018-11-26T14:55:45.859Z,98388.66
2018-11-26T14:58:15.073Z,98385.20
2018-11-26T15:00:44.526Z,98407.83
2018-11-26T15:03:13.793Z,98396.92
2018-11-26T15:05:42.981Z,98387.95
2018-11-26T15:08:12.623Z,98384.20
2018-11-26T15:10:41.734Z,98405.12
2018-11-26T15:13:10.772Z,98420.58
2018-11-26T15:15:40.152Z,98426.91
2018-11-26T15:18:09.104Z,98428.92
2018-11-26T15:20:39.584Z,98428.19
2018-11-26T15:23:11.127Z,98430.14
2018-11-26T15:25:44.172Z,98429.11
2018-11-26T15:28:14.622Z,98426.10
2018-11-26T15:30:46.021Z,98440.53
2018-11-26T15:33:16.261Z,98444.02
2018-11-26T15:35:46.896Z,98442.29
2018-11-26T15:38:16.466Z,98433.28
2018-11-26T15:40:45.555Z,98424.74
2018-11-26T15:43:14.533Z,98421.73
2018-11-26T15:45:43.912Z,98426.20
2018-11-26T16:12:38.818Z,98409.98
2018-11-26T16:15:12.922Z,98399.70
2018-11-26T16:17:42.931Z,98401.97
2018-11-26T16:20:13.633Z,98418.67
2018-11-26T16:22:42.734Z,98417.24
2018-11-26T16:25:13.874Z,98418.41
2018-11-26T16:27:43.291Z,98423.10
2018-11-26T16:30:13.645Z,98422.52
2018-11-26T16:32:43.812Z,98413.57
2018-11-26T16:35:14.181Z,98420.23
2018-11-26T16:37:43.433Z,98415.17
2018-11-26T16:40:15.010Z,98415.30
2018-11-26T16:42:44.184Z,98409.98
2018-11-26T16:45:19.490Z,98411.20
2018-11-26T16:47:49.943Z,98415.15
2018-11-26T16:50:21.397Z,98422.21
2018-11-26T16:52:51.662Z,98422.37
2018-11-26T16:55:19.357Z,98414.41
2018-11-26T16:57:48.359Z,98409.54
2018-11-26T17:00:27.222Z,98409.88
2018-11-26T17:02:58.763Z,98424.53
2018-11-26T17:05:38.724Z,98420.69
2018-11-26T17:08:11.109Z,98422.44
2018-11-26T17:10:40.201Z,98421.20
2018-11-26T17:13:09.273Z,98429.19
2018-11-26T17:15:38.588Z,98413.00
2018-11-26T17:18:08.410Z,98419.95
2018-11-26T17:20:38.636Z,98421.02
2018-11-26T17:23:08.479Z,98426.88
2018-11-26T17:25:37.577Z,98425.23
2018-11-26T17:28:07.419Z,98442.27
2018-11-26T17:30:37.420Z,98450.80
2018-11-26T17:33:08.259Z,98440.58
2018-11-26T17:35:37.811Z,98435.05
2018-11-26T17:38:07.566Z,98431.30
2018-11-26T17:40:37.622Z,98432.98
2018-11-26T17:43:07.802Z,98440.90
2018-11-26T17:45:36.725Z,98455.69
2018-11-26T17:48:06.067Z,98458.04
2018-11-26T17:50:41.782Z,98462.47
2018-11-26T17:53:13.687Z,98474.81
2018-11-26T17:55:49.102Z,98492.02
2018-11-26T17:58:19.683Z,98485.36
2018-11-26T18:00:51.426Z,98486.09
2018-11-26T18:03:20.851Z,98485.61
2018-11-26T18:05:50.794Z,98485.80
2018-11-26T18:08:20.225Z,98484.43
2018-11-26T18:10:49.309Z,98468.53
2018-11-26T18:13:18.081Z,98469.43
2018-11-26T18:15:47.319Z,98464.05
2018-11-26T18:18:21.200Z,98460.57
2018-11-26T18:20:50.629Z,98456.91
2018-11-26T18:23:19.748Z,98461.31
2018-11-26T18:25:48.714Z,98453.05
2018-11-26T18:28:18.271Z,98463.42
2018-11-26T18:30:49.600Z,98476.97
2018-11-26T18:33:19.510Z,98478.44
2018-11-26T18:35:49.250Z,98476.86
2018-11-26T18:38:18.571Z,98468.74
2018-11-26T18:40:49.841Z,98461.89
2018-11-26T18:43:19.244Z,98454.37
2018-11-26T18:45:48.126Z,98451.38
2018-11-26T18:48:18.599Z,98459.48
2018-11-26T18:50:47.529Z,98455.22
2018-11-26T18:53:16.414Z,98460.97
2018-11-26T18:55:45.789Z,98470.40
2018-11-26T18:58:14.777Z,98487.45
2018-11-26T19:01:00.643Z,98486.98
2018-11-26T19:03:30.110Z,98471.12
2018-11-26T19:05:59.211Z,98474.03
2018-11-26T19:08:28.207Z,98476.04
2018-11-26T19:11:00.580Z,98472.41
2018-11-26T19:13:32.000Z,98473.83
2018-11-26T19:16:10.261Z,98467.41
2018-11-26T19:18:39.390Z,98471.95
2018-11-26T19:21:08.645Z,98476.95
2018-11-26T19:23:37.863Z,98470.59
2018-11-26T19:26:07.114Z,98463.64
2018-11-26T19:28:36.410Z,98464.12
2018-11-26T19:31:06.247Z,98480.14
2018-11-26T19:33:35.560Z,98475.45
2018-11-26T19:36:04.789Z,98470.64
2018-11-26T19:38:34.252Z,98465.22
2018-11-26T19:41:03.009Z,98459.47
2018-11-26T19:43:31.726Z,98456.84
2018-11-26T19:46:01.007Z,98459.06
2018-11-26T19:48:29.888Z,98465.06
2018-11-26T19:50:58.816Z,98447.98
2018-11-26T19:53:28.109Z,98444.11
2018-11-26T19:55:57.311Z,98430.52
2018-11-26T19:58:26.190Z,98444.59
2018-11-26T20:00:56.009Z,98437.16
2018-11-26T20:03:27.594Z,98433.52
2018-11-26T20:06:06.163Z,98446.68
2018-11-26T20:08:37.441Z,98447.05
2018-11-26T20:11:06.959Z,98460.05
2018-11-26T20:13:36.020Z,98458.05
2018-11-26T20:16:06.219Z,98453.74
2018-11-26T20:18:35.750Z,98456.11
2018-11-26T20:21:05.355Z,98454.41
2018-11-26T20:23:34.250Z,98443.20
2018-11-26T20:26:03.360Z,98442.57
2018-11-26T20:28:32.456Z,98444.63
2018-11-26T20:31:01.750Z,98451.52
2018-11-26T20:33:30.572Z,98448.45
2018-11-26T20:35:59.448Z,98457.40
2018-11-26T20:38:28.617Z,98454.77
2018-11-26T20:40:57.571Z,98467.84
2018-11-26T20:43:26.385Z,98483.92
2018-11-26T20:45:55.599Z,98495.20
2018-11-26T20:48:24.437Z,98485.23
2018-11-26T20:50:54.021Z,98490.50
2018-11-26T20:53:25.530Z,98489.28
2018-11-26T20:55:54.387Z,98481.29
2018-11-26T20:58:23.956Z,98484.98
2018-11-26T21:00:53.246Z,98484.70
2018-11-26T21:03:22.394Z,98499.67
2018-11-26T21:05:51.865Z,98488.55
2018-11-26T21:08:21.101Z,98479.86
2018-11-26T21:10:50.569Z,98476.84
2018-11-26T21:13:20.183Z,98483.80
2018-11-26T21:15:49.405Z,98480.48
2018-11-26T21:18:18.863Z,98485.47
2018-11-26T21:20:49.341Z,98491.42
2018-11-26T21:23:20.207Z,98484.02
2018-11-26T21:25:49.960Z,98496.61
2018-11-26T21:28:19.806Z,98494.34
2018-11-26T21:30:51.984Z,98493.61
2018-11-26T21:33:19.509Z,98485.48
2018-11-26T21:35:48.955Z,98484.55
2018-11-26T21:38:18.694Z,98489.23
2018-11-26T21:40:47.811Z,98486.70
2018-11-26T21:43:17.261Z,98477.69
2018-11-26T21:45:52.276Z,98476.02
2018-11-26T21:48:22.151Z,98470.47
2018-11-26T21:50:51.314Z,98471.58
2018-11-26T21:53:20.854Z,98470.89
2018-11-26T21:55:50.266Z,98469.05
2018-11-26T21:58:19.869Z,98472.77
2018-11-26T22:00:50.452Z,98485.05
2018-11-26T22:03:19.914Z,98477.92
2018-11-26T22:05:49.309Z,98483.27
2018-11-26T22:08:18.703Z,98482.26
2018-11-26T22:10:48.941Z,98492.96
2018-11-26T22:13:21.494Z,98498.44
2018-11-26T22:15:51.410Z,98489.78
2018-11-26T22:18:22.289Z,98499.37
2018-11-26T22:20:51.487Z,98493.57
2018-11-26T22:23:20.624Z,98500.94
2018-11-26T22:25:50.455Z,98484.17
2018-11-26T22:28:19.876Z,98486.35
2018-11-26T22:30:49.341Z,98492.47
2018-11-26T22:33:19.305Z,98490.89
2018-11-26T22:35:48.847Z,98499.69
2018-11-26T22:38:18.412Z,98504.64
2018-11-26T22:40:47.503Z,98501.34
2018-11-26T22:43:16.711Z,98499.53
2018-11-26T22:45:45.537Z,98506.28
2018-11-26T22:48:15.164Z,98507.55
2018-11-26T22:50:44.790Z,98512.92
2018-11-26T22:53:13.601Z,98511.02
2018-11-26T22:55:42.790Z,98510.88
2018-11-26T22:58:12.955Z,98514.20
2018-11-26T23:00:54.702Z,98506.47
2018-11-26T23:03:26.033Z,98505.22
2018-11-26T23:05:55.265Z,98504.91
2018-11-26T23:08:24.097Z,98511.39
2018-11-26T23:10:53.866Z,98504.33
2018-11-26T23:13:23.165Z,98518.91
2018-11-26T23:15:52.013Z,98512.11
2018-11-26T23:18:21.252Z,98517.70
2018-11-26T23:20:50.009Z,98512.03
2018-11-26T23:23:19.123Z,98511.48
2018-11-26T23:25:48.317Z,98512.74
2018-11-26T23:28:17.631Z,98516.06
2018-11-26T23:30:46.833Z,98511.50
2018-11-26T23:33:15.720Z,98527.22
2018-11-26T23:35:44.684Z,98523.61
2018-11-26T23:38:13.544Z,98515.94
2018-11-26T23:40:42.716Z,98520.08
2018-11-26T23:43:11.994Z,98524.91
2018-11-26T23:45:41.300Z,98526.48
2018-11-26T23:48:10.594Z,98527.59
2018-11-26T23:50:39.495Z,98535.77
2018-11-26T23:53:08.311Z,98529.86
2018-11-26T23:55:37.189Z,98534.77
2018-11-26T23:58:06.383Z,98539.95
